Lynn, Pennsylvania
Current Conditions -  °F | °C
As of 1:54 PM on Friday 21 Nov 2014 (Local Time) from KRDG Reporting Station
Clear Clear  
Wind Chill: 26°   Ceiling: Unl
Heat Index: 36°   Visibility: 10mi
Dew Point:   Wind: 16mph
Humidity: 31%   Direction: 290°WNW
Pressure: 30.38"   Gusts: 21mph
Location:  40.6329°N, 75.8768°W
Report Text: KRDG 211854Z AUTO 29014G18KT 10SM CLR 02/M13 A3038 RMK AO2 SLP294 T00221133
Loading
Personal Weather Stations






























Interactive Weather Map New forecast layout! Learn more

10-Day Weather Forecast

Advertisements
Track Severe Weather on mobile